Date,TemperatureHighF,TemperatureAvgF,TemperatureLowF,DewpointHighF,DewpointAvgF,DewpointLowF,HumidityHigh,HumidityAvg,HumidityLow,PressureMaxIn,PressureMinIn,WindSpeedMaxMPH,WindSpeedAvgMPH,GustSpeedMaxMPH,PrecipitationSumIn
2013-1-8,53,49,42,49,46,39,95,90,82,30.08,29.78,31,8,31,0.86
2013-1-9,50,40,34,47,38,33,94,91,84,30.01,29.73,21,4,21,1.44
2013-1-10,38,36,31,35,33,29,93,89,84,30.19,30.00,10,1,10,0.05
2013-1-11,34,30,27,30,27,25,93,90,81,30.40,30.18,8,1,8,0.01
2013-1-12,36,30,27,29,26,24,94,85,64,30.52,30.39,14,1,14,0.00
2013-1-13,36,30,25,29,26,23,92,85,63,30.57,30.51,6,0,6,0.01
2013-1-14,34,33,33,30,29,28,86,85,83,30.59,30.54,9,0,9,0.00
2013-1-17,37,36,33,35,34,31,94,93,91,30.45,30.37,3,0,3,0.01
2013-1-18,36,33,31,35,32,30,95,95,94,30.42,30.34,10,1,10,0.00
2013-1-19,35,33,30,33,31,29,95,94,93,30.46,30.41,10,1,10,0.00
2013-1-20,40,34,31,36,32,30,96,93,85,30.47,30.34,9,1,9,0.00
2013-1-21,34,32,29,34,31,28,96,95,94,30.35,30.21,6,0,6,0.01
2013-1-22,39,34,30,35,32,29,95,92,81,30.22,29.97,5,0,5,0.00
2013-1-23,43,40,37,40,37,31,93,87,69,30.20,29.91,12,1,12,0.31
2013-1-24,45,43,41,40,38,35,93,84,68,30.28,30.11,11,0,11,0.17
2013-1-25,51,45,42,45,42,39,95,88,75,30.12,29.99,15,1,15,0.03
2013-1-26,45,42,40,41,39,37,92,87,82,30.10,29.95,15,2,15,0.43
2013-1-27,42,41,40,39,37,36,92,88,83,30.12,30.05,18,3,18,0.14
2013-1-28,42,41,39,40,39,37,93,92,90,30.15,30.07,12,1,12,0.42
2013-1-29,47,44,42,45,42,40,94,93,90,30.40,30.15,16,2,16,0.50
2013-1-30,47,46,44,46,45,42,96,95,93,30.44,30.39,9,1,9,0.12
2013-1-31,49,47,45,45,44,44,96,92,83,30.46,30.36,17,2,17,0.11